sensor_id;sensor_type;location;lat;lon;timestamp;temperature;humidity
64209;DHT22;50527;52.414;13.226;2023-03-17T00:00:01;5.60;66.20
64209;DHT22;50527;52.414;13.226;2023-03-17T00:02:27;5.60;65.10
64209;DHT22;50527;52.414;13.226;2023-03-17T00:04:52;5.60;65.10
64209;DHT22;50527;52.414;13.226;2023-03-17T00:07:17;5.60;65.50
64209;DHT22;50527;52.414;13.226;2023-03-17T00:09:43;5.40;66.00
64209;DHT22;50527;52.414;13.226;2023-03-17T00:12:10;5.50;67.80
64209;DHT22;50527;52.414;13.226;2023-03-17T00:14:36;5.40;66.30
64209;DHT22;50527;52.414;13.226;2023-03-17T00:17:02;5.40;65.60
64209;DHT22;50527;52.414;13.226;2023-03-17T00:19:30;5.30;66.10
64209;DHT22;50527;52.414;13.226;2023-03-17T00:21:58;5.30;67.40
64209;DHT22;50527;52.414;13.226;2023-03-17T00:24:25;5.20;66.40
64209;DHT22;50527;52.414;13.226;2023-03-17T00:26:50;5.20;66.50
64209;DHT22;50527;52.414;13.226;2023-03-17T00:29:16;5.20;65.20
64209;DHT22;50527;52.414;13.226;2023-03-17T00:31:42;5.10;66.20
64209;DHT22;50527;52.414;13.226;2023-03-17T00:34:11;5.10;66.40
64209;DHT22;50527;52.414;13.226;2023-03-17T00:36:38;5.00;66.20
64209;DHT22;50527;52.414;13.226;2023-03-17T00:39:11;5.10;67.20
64209;DHT22;50527;52.414;13.226;2023-03-17T00:41:38;5.20;65.80
64209;DHT22;50527;52.414;13.226;2023-03-17T00:44:03;5.20;66.10
64209;DHT22;50527;52.414;13.226;2023-03-17T00:46:31;5.10;65.90
64209;DHT22;50527;52.414;13.226;2023-03-17T00:51:40;5.10;66.20
64209;DHT22;50527;52.414;13.226;2023-03-17T00:54:08;5.10;66.60
64209;DHT22;50527;52.414;13.226;2023-03-17T00:56:36;5.10;67.50
64209;DHT22;50527;52.414;13.226;2023-03-17T00:59:03;5.20;67.10
64209;DHT22;50527;52.414;13.226;2023-03-17T01:01:29;5.20;66.10
64209;DHT22;50527;52.414;13.226;2023-03-17T01:03:54;5.10;66.30
64209;DHT22;50527;52.414;13.226;2023-03-17T01:06:20;5.10;65.10
64209;DHT22;50527;52.414;13.226;2023-03-17T01:08:46;5.00;66.60
64209;DHT22;50527;52.414;13.226;2023-03-17T01:11:14;5.00;66.50
64209;DHT22;50527;52.414;13.226;2023-03-17T01:13:40;5.00;66.10
64209;DHT22;50527;52.414;13.226;2023-03-17T01:16:09;5.10;67.10
64209;DHT22;50527;52.414;13.226;2023-03-17T01:18:34;5.10;65.90
64209;DHT22;50527;52.414;13.226;2023-03-17T01:21:00;5.10;67.20
64209;DHT22;50527;52.414;13.226;2023-03-17T01:23:25;5.20;68.20
64209;DHT22;50527;52.414;13.226;2023-03-17T01:25:51;5.20;67.60
64209;DHT22;50527;52.414;13.226;2023-03-17T01:28:17;5.20;66.70
64209;DHT22;50527;52.414;13.226;2023-03-17T01:30:44;5.20;65.50
64209;DHT22;50527;52.414;13.226;2023-03-17T01:33:10;5.20;65.70
64209;DHT22;50527;52.414;13.226;2023-03-17T01:35:38;5.10;67.40
64209;DHT22;50527;52.414;13.226;2023-03-17T01:38:04;5.00;67.10
64209;DHT22;50527;52.414;13.226;2023-03-17T01:40:36;5.00;66.40
64209;DHT22;50527;52.414;13.226;2023-03-17T01:46:11;5.00;66.90
64209;DHT22;50527;52.414;13.226;2023-03-17T01:48:54;4.90;67.70
64209;DHT22;50527;52.414;13.226;2023-03-17T01:51:32;5.00;66.70
64209;DHT22;50527;52.414;13.226;2023-03-17T01:54:00;5.00;67.20
64209;DHT22;50527;52.414;13.226;2023-03-17T01:56:27;4.90;67.10
64209;DHT22;50527;52.414;13.226;2023-03-17T01:58:55;4.90;66.60
64209;DHT22;50527;52.414;13.226;2023-03-17T02:01:27;4.90;68.90
64209;DHT22;50527;52.414;13.226;2023-03-17T02:03:54;4.90;67.20
64209;DHT22;50527;52.414;13.226;2023-03-17T02:06:20;4.80;67.40
64209;DHT22;50527;52.414;13.226;2023-03-17T02:08:46;4.70;68.10
64209;DHT22;50527;52.414;13.226;2023-03-17T02:11:12;4.80;67.90
64209;DHT22;50527;52.414;13.226;2023-03-17T02:13:37;4.70;68.70
64209;DHT22;50527;52.414;13.226;2023-03-17T02:16:03;4.70;67.90
64209;DHT22;50527;52.414;13.226;2023-03-17T02:18:30;4.70;68.80
64209;DHT22;50527;52.414;13.226;2023-03-17T02:23:22;4.90;70.50
64209;DHT22;50527;52.414;13.226;2023-03-17T02:25:48;5.00;71.50
64209;DHT22;50527;52.414;13.226;2023-03-17T02:28:19;5.00;69.00
64209;DHT22;50527;52.414;13.226;2023-03-17T02:30:46;5.00;68.80
64209;DHT22;50527;52.414;13.226;2023-03-17T02:33:11;5.00;68.90
64209;DHT22;50527;52.414;13.226;2023-03-17T02:35:38;5.00;68.30
64209;DHT22;50527;52.414;13.226;2023-03-17T02:38:04;4.90;67.50
64209;DHT22;50527;52.414;13.226;2023-03-17T02:40:29;4.80;68.60
64209;DHT22;50527;52.414;13.226;2023-03-17T02:42:55;4.80;68.90
64209;DHT22;50527;52.414;13.226;2023-03-17T02:45:22;4.80;67.90
64209;DHT22;50527;52.414;13.226;2023-03-17T02:47:48;4.80;69.60
64209;DHT22;50527;52.414;13.226;2023-03-17T02:50:21;4.80;68.60
64209;DHT22;50527;52.414;13.226;2023-03-17T02:52:48;4.80;69.00
64209;DHT22;50527;52.414;13.226;2023-03-17T02:55:13;4.80;68.70
64209;DHT22;50527;52.414;13.226;2023-03-17T02:57:39;4.80;68.60
64209;DHT22;50527;52.414;13.226;2023-03-17T03:00:05;4.80;68.60
64209;DHT22;50527;52.414;13.226;2023-03-17T03:02:35;4.80;69.10
64209;DHT22;50527;52.414;13.226;2023-03-17T03:05:00;4.70;69.10
64209;DHT22;50527;52.414;13.226;2023-03-17T03:07:25;4.70;70.00
64209;DHT22;50527;52.414;13.226;2023-03-17T03:09:51;4.70;69.80
64209;DHT22;50527;52.414;13.226;2023-03-17T03:12:17;4.70;69.00
64209;DHT22;50527;52.414;13.226;2023-03-17T03:14:42;4.70;69.60
64209;DHT22;50527;52.414;13.226;2023-03-17T03:17:07;4.70;69.50
64209;DHT22;50527;52.414;13.226;2023-03-17T03:19:33;4.70;68.80
64209;DHT22;50527;52.414;13.226;2023-03-17T03:21:59;4.80;69.80
64209;DHT22;50527;52.414;13.226;2023-03-17T03:24:25;4.70;69.60
64209;DHT22;50527;52.414;13.226;2023-03-17T03:26:50;4.80;70.50
64209;DHT22;50527;52.414;13.226;2023-03-17T03:29:16;4.80;70.50
64209;DHT22;50527;52.414;13.226;2023-03-17T03:31:41;4.90;69.50
64209;DHT22;50527;52.414;13.226;2023-03-17T03:34:07;4.80;69.70
64209;DHT22;50527;52.414;13.226;2023-03-17T03:36:33;4.80;68.80
64209;DHT22;50527;52.414;13.226;2023-03-17T03:38:58;4.80;70.10
64209;DHT22;50527;52.414;13.226;2023-03-17T03:41:25;4.80;70.00
64209;DHT22;50527;52.414;13.226;2023-03-17T03:43:51;4.80;69.20
64209;DHT22;50527;52.414;13.226;2023-03-17T03:46:17;4.80;69.40
64209;DHT22;50527;52.414;13.226;2023-03-17T03:48:42;4.80;68.90
64209;DHT22;50527;52.414;13.226;2023-03-17T03:51:08;4.70;69.70
64209;DHT22;50527;52.414;13.226;2023-03-17T03:53:33;4.70;69.90
64209;DHT22;50527;52.414;13.226;2023-03-17T03:55:59;4.60;68.40
64209;DHT22;50527;52.414;13.226;2023-03-17T03:58:25;4.60;70.70
64209;DHT22;50527;52.414;13.226;2023-03-17T04:00:50;4.60;69.10
64209;DHT22;50527;52.414;13.226;2023-03-17T04:03:16;4.50;69.90
64209;DHT22;50527;52.414;13.226;2023-03-17T04:05:41;4.60;71.10
64209;DHT22;50527;52.414;13.226;2023-03-17T04:08:07;4.60;69.20
64209;DHT22;50527;52.414;13.226;2023-03-17T04:10:33;4.60;69.40
64209;DHT22;50527;52.414;13.226;2023-03-17T04:12:59;4.60;69.70
64209;DHT22;50527;52.414;13.226;2023-03-17T04:15:24;4.50;69.10
64209;DHT22;50527;52.414;13.226;2023-03-17T04:17:50;4.60;70.30
64209;DHT22;50527;52.414;13.226;2023-03-17T04:20:17;4.70;70.40
64209;DHT22;50527;52.414;13.226;2023-03-17T04:22:42;4.70;69.50
64209;DHT22;50527;52.414;13.226;2023-03-17T04:25:10;4.70;69.90
64209;DHT22;50527;52.414;13.226;2023-03-17T04:27:36;4.70;70.40
64209;DHT22;50527;52.414;13.226;2023-03-17T04:30:03;4.70;70.30
64209;DHT22;50527;52.414;13.226;2023-03-17T04:32:29;4.80;68.50
64209;DHT22;50527;52.414;13.226;2023-03-17T04:34:54;4.70;69.80
64209;DHT22;50527;52.414;13.226;2023-03-17T04:37:20;4.70;70.40
64209;DHT22;50527;52.414;13.226;2023-03-17T04:39:46;4.80;69.40
64209;DHT22;50527;52.414;13.226;2023-03-17T04:42:11;4.70;68.00
64209;DHT22;50527;52.414;13.226;2023-03-17T04:44:37;4.70;69.40
64209;DHT22;50527;52.414;13.226;2023-03-17T04:47:02;4.60;68.30
64209;DHT22;50527;52.414;13.226;2023-03-17T04:49:28;4.60;68.90
64209;DHT22;50527;52.414;13.226;2023-03-17T04:51:54;4.60;67.30
64209;DHT22;50527;52.414;13.226;2023-03-17T04:54:20;4.50;68.10
64209;DHT22;50527;52.414;13.226;2023-03-17T04:56:46;4.60;69.10
64209;DHT22;50527;52.414;13.226;2023-03-17T04:59:11;4.60;68.90
64209;DHT22;50527;52.414;13.226;2023-03-17T05:01:37;4.60;69.50
64209;DHT22;50527;52.414;13.226;2023-03-17T05:04:02;4.60;68.60
64209;DHT22;50527;52.414;13.226;2023-03-17T05:06:28;4.60;68.70
64209;DHT22;50527;52.414;13.226;2023-03-17T05:08:53;4.60;68.70
64209;DHT22;50527;52.414;13.226;2023-03-17T05:11:19;4.60;69.50
64209;DHT22;50527;52.414;13.226;2023-03-17T05:13:45;4.60;67.90
64209;DHT22;50527;52.414;13.226;2023-03-17T05:16:10;4.70;68.10
64209;DHT22;50527;52.414;13.226;2023-03-17T05:18:36;4.70;67.70
64209;DHT22;50527;52.414;13.226;2023-03-17T05:21:04;4.70;67.80
64209;DHT22;50527;52.414;13.226;2023-03-17T05:23:29;4.80;67.20
64209;DHT22;50527;52.414;13.226;2023-03-17T05:25:55;4.70;67.30
64209;DHT22;50527;52.414;13.226;2023-03-17T05:28:20;4.70;68.00
64209;DHT22;50527;52.414;13.226;2023-03-17T05:30:47;4.80;67.30
64209;DHT22;50527;52.414;13.226;2023-03-17T05:33:13;4.90;68.90
64209;DHT22;50527;52.414;13.226;2023-03-17T05:35:39;4.80;67.40
64209;DHT22;50527;52.414;13.226;2023-03-17T05:38:04;4.90;68.20
64209;DHT22;50527;52.414;13.226;2023-03-17T05:40:31;4.80;65.80
64209;DHT22;50527;52.414;13.226;2023-03-17T05:42:56;4.90;67.30
64209;DHT22;50527;52.414;13.226;2023-03-17T05:45:22;5.00;67.10
64209;DHT22;50527;52.414;13.226;2023-03-17T05:47:47;5.00;66.80
64209;DHT22;50527;52.414;13.226;2023-03-17T05:50:13;4.90;66.10
64209;DHT22;50527;52.414;13.226;2023-03-17T05:52:39;4.90;66.90
64209;DHT22;50527;52.414;13.226;2023-03-17T05:55:05;4.90;67.00
64209;DHT22;50527;52.414;13.226;2023-03-17T05:57:32;4.90;65.60
64209;DHT22;50527;52.414;13.226;2023-03-17T05:59:57;4.90;66.90
64209;DHT22;50527;52.414;13.226;2023-03-17T06:02:23;4.80;66.20
64209;DHT22;50527;52.414;13.226;2023-03-17T06:04:48;4.90;66.60
64209;DHT22;50527;52.414;13.226;2023-03-17T06:07:14;4.90;65.90
64209;DHT22;50527;52.414;13.226;2023-03-17T06:09:39;4.80;65.40
64209;DHT22;50527;52.414;13.226;2023-03-17T06:12:06;4.80;65.70
64209;DHT22;50527;52.414;13.226;2023-03-17T06:14:31;4.80;65.00
64209;DHT22;50527;52.414;13.226;2023-03-17T06:16:57;4.80;64.50
64209;DHT22;50527;52.414;13.226;2023-03-17T06:19:22;4.80;65.60
64209;DHT22;50527;52.414;13.226;2023-03-17T06:21:48;4.80;66.00
64209;DHT22;50527;52.414;13.226;2023-03-17T06:24:14;4.80;66.00
64209;DHT22;50527;52.414;13.226;2023-03-17T06:26:40;4.80;65.90
64209;DHT22;50527;52.414;13.226;2023-03-17T06:29:07;4.90;65.60
64209;DHT22;50527;52.414;13.226;2023-03-17T06:31:37;4.90;64.90
64209;DHT22;50527;52.414;13.226;2023-03-17T06:34:03;5.00;64.20
64209;DHT22;50527;52.414;13.226;2023-03-17T06:36:29;5.00;64.60
64209;DHT22;50527;52.414;13.226;2023-03-17T06:38:55;4.90;64.80
64209;DHT22;50527;52.414;13.226;2023-03-17T06:41:20;5.00;65.20
64209;DHT22;50527;52.414;13.226;2023-03-17T06:43:46;5.10;64.60
64209;DHT22;50527;52.414;13.226;2023-03-17T06:46:12;5.20;64.40
64209;DHT22;50527;52.414;13.226;2023-03-17T06:48:37;5.20;63.20
64209;DHT22;50527;52.414;13.226;2023-03-17T06:51:03;5.30;62.90
64209;DHT22;50527;52.414;13.226;2023-03-17T06:53:29;5.40;63.10
64209;DHT22;50527;52.414;13.226;2023-03-17T06:55:55;5.50;62.60
64209;DHT22;50527;52.414;13.226;2023-03-17T06:58:21;5.60;62.90
64209;DHT22;50527;52.414;13.226;2023-03-17T07:00:47;5.70;61.20
64209;DHT22;50527;52.414;13.226;2023-03-17T07:03:13;5.70;61.40
64209;DHT22;50527;52.414;13.226;2023-03-17T07:05:40;5.80;62.60
64209;DHT22;50527;52.414;13.226;2023-03-17T07:08:06;5.90;61.00
64209;DHT22;50527;52.414;13.226;2023-03-17T07:10:31;5.90;61.00
64209;DHT22;50527;52.414;13.226;2023-03-17T07:12:57;5.90;59.00
64209;DHT22;50527;52.414;13.226;2023-03-17T07:15:23;6.00;59.30
64209;DHT22;50527;52.414;13.226;2023-03-17T07:17:49;6.10;60.00
64209;DHT22;50527;52.414;13.226;2023-03-17T07:20:15;6.30;58.60
64209;DHT22;50527;52.414;13.226;2023-03-17T07:22:40;6.60;58.30
64209;DHT22;50527;52.414;13.226;2023-03-17T07:25:07;7.70;55.00
64209;DHT22;50527;52.414;13.226;2023-03-17T07:27:33;8.60;52.60
64209;DHT22;50527;52.414;13.226;2023-03-17T07:29:59;8.50;51.70
64209;DHT22;50527;52.414;13.226;2023-03-17T07:32:28;8.40;52.40
64209;DHT22;50527;52.414;13.226;2023-03-17T07:34:54;8.10;51.80
64209;DHT22;50527;52.414;13.226;2023-03-17T07:37:19;8.20;51.90
64209;DHT22;50527;52.414;13.226;2023-03-17T07:39:46;8.20;52.00
64209;DHT22;50527;52.414;13.226;2023-03-17T07:42:13;8.30;51.40
64209;DHT22;50527;52.414;13.226;2023-03-17T07:44:40;8.10;51.30
64209;DHT22;50527;52.414;13.226;2023-03-17T07:47:06;7.60;52.50
64209;DHT22;50527;52.414;13.226;2023-03-17T07:49:31;7.60;52.30
64209;DHT22;50527;52.414;13.226;2023-03-17T07:51:57;8.10;52.40
64209;DHT22;50527;52.414;13.226;2023-03-17T07:54:23;10.20;49.80
64209;DHT22;50527;52.414;13.226;2023-03-17T07:56:49;12.20;46.50
64209;DHT22;50527;52.414;13.226;2023-03-17T07:59:15;12.60;42.80
64209;DHT22;50527;52.414;13.226;2023-03-17T08:01:41;12.70;42.90
64209;DHT22;50527;52.414;13.226;2023-03-17T08:04:06;13.30;42.50
64209;DHT22;50527;52.414;13.226;2023-03-17T08:06:32;13.90;41.30
64209;DHT22;50527;52.414;13.226;2023-03-17T08:08:58;14.10;39.70
64209;DHT22;50527;52.414;13.226;2023-03-17T08:11:24;12.70;40.40
64209;DHT22;50527;52.414;13.226;2023-03-17T08:13:49;11.60;42.50
64209;DHT22;50527;52.414;13.226;2023-03-17T08:16:15;10.80;43.90
64209;DHT22;50527;52.414;13.226;2023-03-17T08:18:41;10.40;45.20
64209;DHT22;50527;52.414;13.226;2023-03-17T08:21:06;10.40;45.90
64209;DHT22;50527;52.414;13.226;2023-03-17T08:23:32;10.60;46.10
64209;DHT22;50527;52.414;13.226;2023-03-17T08:25:59;11.10;45.50
64209;DHT22;50527;52.414;13.226;2023-03-17T08:28:24;12.20;44.70
64209;DHT22;50527;52.414;13.226;2023-03-17T08:30:50;12.90;43.10
64209;DHT22;50527;52.414;13.226;2023-03-17T08:33:16;12.30;42.50
64209;DHT22;50527;52.414;13.226;2023-03-17T08:35:42;11.70;42.60
64209;DHT22;50527;52.414;13.226;2023-03-17T08:38:08;11.00;44.70
64209;DHT22;50527;52.414;13.226;2023-03-17T08:40:34;10.90;44.80
64209;DHT22;50527;52.414;13.226;2023-03-17T08:43:00;10.20;44.80
64209;DHT22;50527;52.414;13.226;2023-03-17T08:45:26;9.70;45.90
64209;DHT22;50527;52.414;13.226;2023-03-17T08:47:52;9.60;46.00
64209;DHT22;50527;52.414;13.226;2023-03-17T08:50:20;9.50;46.40
64209;DHT22;50527;52.414;13.226;2023-03-17T08:52:46;9.50;46.70
64209;DHT22;50527;52.414;13.226;2023-03-17T08:55:14;9.60;46.50
64209;DHT22;50527;52.414;13.226;2023-03-17T08:57:40;9.80;47.50
64209;DHT22;50527;52.414;13.226;2023-03-17T09:00:06;9.80;47.40
64209;DHT22;50527;52.414;13.226;2023-03-17T09:02:40;9.70;46.20
64209;DHT22;50527;52.414;13.226;2023-03-17T09:05:08;9.70;47.00
64209;DHT22;50527;52.414;13.226;2023-03-17T09:07:35;9.70;46.40
64209;DHT22;50527;52.414;13.226;2023-03-17T09:10:00;9.80;47.40
64209;DHT22;50527;52.414;13.226;2023-03-17T09:12:29;10.00;46.70
64209;DHT22;50527;52.414;13.226;2023-03-17T09:14:55;10.10;45.50
64209;DHT22;50527;52.414;13.226;2023-03-17T09:17:21;10.60;45.40
64209;DHT22;50527;52.414;13.226;2023-03-17T09:19:47;11.40;45.10
64209;DHT22;50527;52.414;13.226;2023-03-17T09:22:14;12.30;44.60
64209;DHT22;50527;52.414;13.226;2023-03-17T09:24:40;12.90;42.30
64209;DHT22;50527;52.414;13.226;2023-03-17T09:27:06;13.40;42.70
64209;DHT22;50527;52.414;13.226;2023-03-17T09:29:32;13.50;40.80
64209;DHT22;50527;52.414;13.226;2023-03-17T09:31:58;13.80;40.90
64209;DHT22;50527;52.414;13.226;2023-03-17T09:34:23;13.90;40.40
64209;DHT22;50527;52.414;13.226;2023-03-17T09:36:49;13.80;41.30
64209;DHT22;50527;52.414;13.226;2023-03-17T09:39:15;13.70;40.00
64209;DHT22;50527;52.414;13.226;2023-03-17T09:50:07;13.10;42.50
64209;DHT22;50527;52.414;13.226;2023-03-17T09:52:35;13.50;41.80
64209;DHT22;50527;52.414;13.226;2023-03-17T09:55:02;13.90;42.10
64209;DHT22;50527;52.414;13.226;2023-03-17T09:57:35;14.10;40.10
64209;DHT22;50527;52.414;13.226;2023-03-17T10:00:15;14.10;41.00
64209;DHT22;50527;52.414;13.226;2023-03-17T10:02:42;13.80;40.50
64209;DHT22;50527;52.414;13.226;2023-03-17T10:05:21;13.70;41.40
64209;DHT22;50527;52.414;13.226;2023-03-17T10:08:13;13.30;41.80
64209;DHT22;50527;52.414;13.226;2023-03-17T10:13:25;12.70;43.10
64209;DHT22;50527;52.414;13.226;2023-03-17T10:19:28;12.40;44.20
64209;DHT22;50527;52.414;13.226;2023-03-17T10:22:04;12.50;44.70
64209;DHT22;50527;52.414;13.226;2023-03-17T10:24:31;12.70;44.30
64209;DHT22;50527;52.414;13.226;2023-03-17T10:27:02;12.70;43.00
64209;DHT22;50527;52.414;13.226;2023-03-17T10:29:30;12.60;43.10
64209;DHT22;50527;52.414;13.226;2023-03-17T10:31:56;12.80;44.50
64209;DHT22;50527;52.414;13.226;2023-03-17T10:34:31;12.90;42.60
64209;DHT22;50527;52.414;13.226;2023-03-17T10:37:16;12.80;41.90
64209;DHT22;50527;52.414;13.226;2023-03-17T10:39:47;12.80;42.70
64209;DHT22;50527;52.414;13.226;2023-03-17T10:42:29;12.80;42.40
64209;DHT22;50527;52.414;13.226;2023-03-17T10:45:13;12.80;42.40
64209;DHT22;50527;52.414;13.226;2023-03-17T10:47:43;12.80;43.20
64209;DHT22;50527;52.414;13.226;2023-03-17T10:50:26;12.90;42.70
64209;DHT22;50527;52.414;13.226;2023-03-17T10:52:58;13.40;43.00
64209;DHT22;50527;52.414;13.226;2023-03-17T10:55:31;13.40;41.80
64209;DHT22;50527;52.414;13.226;2023-03-17T10:58:14;13.50;42.80
64209;DHT22;50527;52.414;13.226;2023-03-17T11:00:54;13.30;43.50
64209;DHT22;50527;52.414;13.226;2023-03-17T11:03:30;13.40;43.00
64209;DHT22;50527;52.414;13.226;2023-03-17T11:06:04;13.30;43.20
64209;DHT22;50527;52.414;13.226;2023-03-17T11:08:41;13.40;41.90
64209;DHT22;50527;52.414;13.226;2023-03-17T11:11:26;13.40;43.00
64209;DHT22;50527;52.414;13.226;2023-03-17T11:14:05;13.40;42.80
64209;DHT22;50527;52.414;13.226;2023-03-17T11:16:36;13.50;43.30
64209;DHT22;50527;52.414;13.226;2023-03-17T11:19:06;13.50;42.40
64209;DHT22;50527;52.414;13.226;2023-03-17T11:21:43;13.70;43.50
64209;DHT22;50527;52.414;13.226;2023-03-17T11:24:20;13.90;43.30
64209;DHT22;50527;52.414;13.226;2023-03-17T11:27:03;13.90;42.40
64209;DHT22;50527;52.414;13.226;2023-03-17T11:33:12;13.80;42.90
64209;DHT22;50527;52.414;13.226;2023-03-17T11:35:33;13.90;42.70
64209;DHT22;50527;52.414;13.226;2023-03-17T11:38:21;13.80;42.10
64209;DHT22;50527;52.414;13.226;2023-03-17T11:47:27;13.80;42.30
64209;DHT22;50527;52.414;13.226;2023-03-17T11:49:35;13.80;43.20
64209;DHT22;50527;52.414;13.226;2023-03-17T11:52:15;13.80;42.10
64209;DHT22;50527;52.414;13.226;2023-03-17T11:57:36;13.90;42.60
64209;DHT22;50527;52.414;13.226;2023-03-17T12:00:29;13.70;41.90
64209;DHT22;50527;52.414;13.226;2023-03-17T12:02:59;13.80;43.40
64209;DHT22;50527;52.414;13.226;2023-03-17T12:05:27;13.90;41.90
64209;DHT22;50527;52.414;13.226;2023-03-17T12:08:01;13.80;43.00
64209;DHT22;50527;52.414;13.226;2023-03-17T12:10:35;13.70;42.10
64209;DHT22;50527;52.414;13.226;2023-03-17T12:13:14;13.70;42.60
64209;DHT22;50527;52.414;13.226;2023-03-17T12:15:50;13.80;43.20
64209;DHT22;50527;52.414;13.226;2023-03-17T12:18:24;13.90;42.70
64209;DHT22;50527;52.414;13.226;2023-03-17T12:20:59;13.90;43.30
64209;DHT22;50527;52.414;13.226;2023-03-17T12:23:46;13.90;43.10
64209;DHT22;50527;52.414;13.226;2023-03-17T12:26:22;13.90;43.70
64209;DHT22;50527;52.414;13.226;2023-03-17T12:29:03;13.90;43.10
64209;DHT22;50527;52.414;13.226;2023-03-17T12:31:33;14.10;43.10
64209;DHT22;50527;52.414;13.226;2023-03-17T12:36:43;14.30;42.90
64209;DHT22;50527;52.414;13.226;2023-03-17T12:39:20;14.40;43.60
64209;DHT22;50527;52.414;13.226;2023-03-17T12:45:12;14.30;43.10
64209;DHT22;50527;52.414;13.226;2023-03-17T12:50:40;14.20;43.10
64209;DHT22;50527;52.414;13.226;2023-03-17T12:55:45;14.20;42.70
64209;DHT22;50527;52.414;13.226;2023-03-17T12:58:31;14.30;43.80
64209;DHT22;50527;52.414;13.226;2023-03-17T13:01:30;14.30;43.00
64209;DHT22;50527;52.414;13.226;2023-03-17T13:04:00;14.40;43.70
64209;DHT22;50527;52.414;13.226;2023-03-17T13:06:29;14.50;44.30
64209;DHT22;50527;52.414;13.226;2023-03-17T13:08:55;14.50;43.10
64209;DHT22;50527;52.414;13.226;2023-03-17T13:14:24;14.50;43.30
64209;DHT22;50527;52.414;13.226;2023-03-17T13:16:51;14.50;43.40
64209;DHT22;50527;52.414;13.226;2023-03-17T13:19:31;14.50;43.70
64209;DHT22;50527;52.414;13.226;2023-03-17T13:29:50;14.40;43.40
64209;DHT22;50527;52.414;13.226;2023-03-17T13:34:47;14.50;43.70
64209;DHT22;50527;52.414;13.226;2023-03-17T13:37:30;14.50;43.70
64209;DHT22;50527;52.414;13.226;2023-03-17T13:40:23;14.50;42.90
64209;DHT22;50527;52.414;13.226;2023-03-17T13:45:38;14.30;43.10
64209;DHT22;50527;52.414;13.226;2023-03-17T13:51:35;14.50;43.90
64209;DHT22;50527;52.414;13.226;2023-03-17T13:53:44;14.50;43.80
64209;DHT22;50527;52.414;13.226;2023-03-17T13:56:20;14.50;43.50
64209;DHT22;50527;52.414;13.226;2023-03-17T14:01:28;14.70;42.90
64209;DHT22;50527;52.414;13.226;2023-03-17T14:03:56;14.60;42.30
64209;DHT22;50527;52.414;13.226;2023-03-17T14:06:26;14.70;42.60
64209;DHT22;50527;52.414;13.226;2023-03-17T14:09:12;14.60;41.70
64209;DHT22;50527;52.414;13.226;2023-03-17T14:11:44;14.50;42.50
64209;DHT22;50527;52.414;13.226;2023-03-17T14:17:28;14.50;42.80
64209;DHT22;50527;52.414;13.226;2023-03-17T14:22:39;14.50;42.40
64209;DHT22;50527;52.414;13.226;2023-03-17T14:25:12;14.50;41.80
64209;DHT22;50527;52.414;13.226;2023-03-17T14:27:38;14.50;42.80
64209;DHT22;50527;52.414;13.226;2023-03-17T14:30:31;14.50;43.20
64209;DHT22;50527;52.414;13.226;2023-03-17T14:35:38;14.50;43.10
64209;DHT22;50527;52.414;13.226;2023-03-17T14:38:18;14.50;43.10
64209;DHT22;50527;52.414;13.226;2023-03-17T14:40:45;14.50;42.80
64209;DHT22;50527;52.414;13.226;2023-03-17T14:43:11;14.40;42.40
64209;DHT22;50527;52.414;13.226;2023-03-17T14:46:01;14.40;43.40
64209;DHT22;50527;52.414;13.226;2023-03-17T14:48:33;14.50;43.70
64209;DHT22;50527;52.414;13.226;2023-03-17T14:51:08;14.50;42.50
64209;DHT22;50527;52.414;13.226;2023-03-17T14:53:39;14.40;42.50
64209;DHT22;50527;52.414;13.226;2023-03-17T14:56:06;14.30;43.00
64209;DHT22;50527;52.414;13.226;2023-03-17T14:58:38;14.30;43.20
64209;DHT22;50527;52.414;13.226;2023-03-17T15:01:07;14.20;43.80
64209;DHT22;50527;52.414;13.226;2023-03-17T15:03:38;14.20;43.70
64209;DHT22;50527;52.414;13.226;2023-03-17T15:06:20;14.30;43.50
64209;DHT22;50527;52.414;13.226;2023-03-17T15:08:46;14.30;44.80
64209;DHT22;50527;52.414;13.226;2023-03-17T15:11:26;14.20;43.10
64209;DHT22;50527;52.414;13.226;2023-03-17T15:13:55;14.20;44.30
64209;DHT22;50527;52.414;13.226;2023-03-17T15:16:29;14.20;44.00
64209;DHT22;50527;52.414;13.226;2023-03-17T15:19:06;14.10;44.10
64209;DHT22;50527;52.414;13.226;2023-03-17T15:21:36;14.10;43.80
64209;DHT22;50527;52.414;13.226;2023-03-17T15:24:24;14.10;44.80
64209;DHT22;50527;52.414;13.226;2023-03-17T15:27:02;14.00;44.50
64209;DHT22;50527;52.414;13.226;2023-03-17T15:29:28;14.00;44.40
64209;DHT22;50527;52.414;13.226;2023-03-17T15:32:00;14.00;44.70
64209;DHT22;50527;52.414;13.226;2023-03-17T15:34:27;14.00;43.80
64209;DHT22;50527;52.414;13.226;2023-03-17T15:36:52;14.00;44.50
64209;DHT22;50527;52.414;13.226;2023-03-17T15:39:18;13.90;43.90
64209;DHT22;50527;52.414;13.226;2023-03-17T15:41:43;13.90;44.40
64209;DHT22;50527;52.414;13.226;2023-03-17T15:44:09;13.90;44.10
64209;DHT22;50527;52.414;13.226;2023-03-17T15:46:34;13.80;44.90
64209;DHT22;50527;52.414;13.226;2023-03-17T15:49:00;13.90;45.30
64209;DHT22;50527;52.414;13.226;2023-03-17T15:51:26;13.90;45.20
64209;DHT22;50527;52.414;13.226;2023-03-17T15:53:52;13.90;45.40
64209;DHT22;50527;52.414;13.226;2023-03-17T15:56:19;13.90;46.20
64209;DHT22;50527;52.414;13.226;2023-03-17T15:58:49;13.80;45.30
64209;DHT22;50527;52.414;13.226;2023-03-17T16:01:16;13.80;46.20
64209;DHT22;50527;52.414;13.226;2023-03-17T16:03:42;13.70;45.40
64209;DHT22;50527;52.414;13.226;2023-03-17T16:06:18;13.70;45.30
64209;DHT22;50527;52.414;13.226;2023-03-17T16:08:44;13.60;45.80
64209;DHT22;50527;52.414;13.226;2023-03-17T16:11:17;13.60;45.70
64209;DHT22;50527;52.414;13.226;2023-03-17T16:13:44;13.50;46.30
64209;DHT22;50527;52.414;13.226;2023-03-17T16:16:34;13.50;46.00
64209;DHT22;50527;52.414;13.226;2023-03-17T16:19:00;13.40;46.10
64209;DHT22;50527;52.414;13.226;2023-03-17T16:21:28;13.40;46.50
64209;DHT22;50527;52.414;13.226;2023-03-17T16:23:54;13.40;46.50
64209;DHT22;50527;52.414;13.226;2023-03-17T16:26:19;13.40;46.60
64209;DHT22;50527;52.414;13.226;2023-03-17T16:28:45;13.30;46.60
64209;DHT22;50527;52.414;13.226;2023-03-17T16:31:17;13.30;46.90
64209;DHT22;50527;52.414;13.226;2023-03-17T16:33:43;13.20;46.60
64209;DHT22;50527;52.414;13.226;2023-03-17T16:36:14;13.10;46.80
64209;DHT22;50527;52.414;13.226;2023-03-17T16:38:40;13.10;46.00
64209;DHT22;50527;52.414;13.226;2023-03-17T16:41:19;13.10;46.30
64209;DHT22;50527;52.414;13.226;2023-03-17T16:43:48;13.00;46.90
64209;DHT22;50527;52.414;13.226;2023-03-17T16:46:15;13.00;46.20
64209;DHT22;50527;52.414;13.226;2023-03-17T16:48:41;12.90;47.10
64209;DHT22;50527;52.414;13.226;2023-03-17T16:51:07;12.90;46.70